createdAt,value
2023-04-05T04:52:55.173Z,0.20
2023-04-05T04:55:33.539Z,0.27
2023-04-05T04:58:10.381Z,0.32
2023-04-05T05:00:44.789Z,0.36
2023-04-05T05:03:14.743Z,0.41
2023-04-05T05:05:45.524Z,0.45
2023-04-05T05:09:31.502Z,0.48
2023-04-05T05:12:01.879Z,0.52
2023-04-05T05:14:30.881Z,0.55
2023-04-05T05:16:59.528Z,0.52
2023-04-05T05:19:32.031Z,0.49
2023-04-05T05:22:01.492Z,0.50
2023-04-05T05:24:31.144Z,0.52
2023-04-05T05:26:59.619Z,0.54
2023-04-05T05:34:48.803Z,0.53
2023-04-05T05:37:18.545Z,0.49
2023-04-05T05:39:47.801Z,0.46
2023-04-05T05:42:16.411Z,0.51
2023-04-05T05:44:45.339Z,0.58
2023-04-05T05:47:13.741Z,0.63
2023-04-05T05:49:42.642Z,0.65
2023-04-05T05:52:32.763Z,0.70
2023-04-05T05:55:01.009Z,0.75
2023-04-05T05:57:29.902Z,0.80
2023-04-05T06:00:01.365Z,0.82
2023-04-05T06:02:42.716Z,0.85
2023-04-05T06:11:56.961Z,0.72
2023-04-05T06:14:25.310Z,0.74
2023-04-05T06:16:52.864Z,0.84
2023-04-05T06:19:20.490Z,0.92
2023-04-05T06:21:47.376Z,0.97
2023-04-05T06:24:15.444Z,0.98
2023-04-05T06:27:07.617Z,1.02
2023-04-05T06:29:34.576Z,1.05
2023-04-05T06:32:28.524Z,1.07
2023-04-05T06:34:56.966Z,1.11
2023-04-05T06:59:10.150Z,1.45
2023-04-05T07:01:40.387Z,1.53
2023-04-05T07:04:13.446Z,1.52
2023-04-05T07:06:41.810Z,1.51
2023-04-05T07:09:12.957Z,1.49
2023-04-05T07:11:42.587Z,1.47
2023-04-05T07:14:15.380Z,1.45
2023-04-05T07:16:52.620Z,1.43
2023-04-05T07:19:26.374Z,1.45
2023-04-05T07:21:56.386Z,1.42
2023-04-05T07:24:26.152Z,1.41
2023-04-05T07:26:54.637Z,1.39
2023-04-05T07:29:24.843Z,1.38
2023-04-05T07:31:53.437Z,1.34
2023-04-05T07:34:24.740Z,1.33
2023-04-05T07:36:53.577Z,1.32
2023-04-05T07:39:22.400Z,1.38
2023-04-05T07:42:00.171Z,1.46
2023-04-05T07:44:28.897Z,1.50
2023-04-05T08:06:58.206Z,2.16
2023-04-05T08:09:26.597Z,2.25
2023-04-05T08:11:57.444Z,2.19
2023-04-05T08:14:25.997Z,2.16
2023-04-05T08:16:56.508Z,2.11
2023-04-05T08:19:28.692Z,2.04
2023-04-05T08:21:57.471Z,2.03
2023-04-05T08:24:29.087Z,2.06
2023-04-05T08:27:00.015Z,2.01
2023-04-05T08:29:33.086Z,1.93
2023-04-05T08:32:01.880Z,1.92
2023-04-05T08:34:31.191Z,1.94
2023-04-05T09:06:32.971Z,1.66
2023-04-05T09:09:01.761Z,1.66
2023-04-05T09:11:30.510Z,1.69
2023-04-05T09:13:58.846Z,1.75
2023-04-05T09:16:27.610Z,1.81
2023-04-05T09:19:21.522Z,1.84
2023-04-05T09:22:11.732Z,1.85
2023-04-05T09:24:44.038Z,1.88
2023-04-05T09:27:13.927Z,1.89
2023-04-05T09:29:44.515Z,1.89
2023-04-05T09:32:13.511Z,1.91
2023-04-05T09:34:42.318Z,1.93
2023-04-05T09:37:19.746Z,1.93
2023-04-05T09:39:50.835Z,1.91
2023-04-05T09:42:20.099Z,1.88
2023-04-05T09:45:03.125Z,1.90
2023-04-05T09:47:36.755Z,1.94
2023-04-05T09:50:14.560Z,1.96
2023-04-05T10:21:34.406Z,2.00
2023-04-05T10:24:37.019Z,2.05
2023-04-05T10:27:12.511Z,2.04
2023-04-05T10:30:06.570Z,2.03
2023-04-05T10:32:43.383Z,2.03
2023-04-05T10:35:27.126Z,2.04
2023-04-05T10:38:18.921Z,2.07
2023-04-05T10:40:48.777Z,2.13
2023-04-05T10:43:21.820Z,2.15
2023-04-05T10:45:52.932Z,2.15
2023-04-05T10:48:36.402Z,2.12
2023-04-05T10:51:06.434Z,2.09
2023-04-05T10:53:36.144Z,2.09
2023-04-05T11:09:37.451Z,2.43
2023-04-05T11:12:06.316Z,2.51
2023-04-05T11:14:36.366Z,2.47
2023-04-05T11:17:04.704Z,2.37
2023-04-05T11:19:42.666Z,2.31
2023-04-05T11:22:11.598Z,2.23
2023-04-05T11:24:53.488Z,2.17
2023-04-05T11:27:45.384Z,2.07
2023-04-05T11:30:16.323Z,2.01
2023-04-05T11:32:45.580Z,2.01
2023-04-05T12:09:19.842Z,2.03
2023-04-05T12:11:51.769Z,2.14
2023-04-05T12:14:20.732Z,2.18
2023-04-05T12:16:50.588Z,2.19
2023-04-05T12:19:19.762Z,2.17
2023-04-05T12:21:50.810Z,2.19
2023-04-05T12:24:19.731Z,2.19
2023-04-05T12:26:48.114Z,2.16
2023-04-05T12:29:16.692Z,2.15
2023-04-05T12:31:47.270Z,2.15
2023-04-05T12:34:15.862Z,2.15
2023-04-05T12:36:46.612Z,2.14
2023-04-05T12:39:15.935Z,2.11
2023-04-05T12:41:44.652Z,2.09
2023-04-05T12:44:16.421Z,2.05
2023-04-05T12:46:46.018Z,2.03
2023-04-05T12:49:18.261Z,2.03
2023-04-05T12:51:47.420Z,2.02
2023-04-05T12:54:24.032Z,2.03
2023-04-05T12:56:56.109Z,2.05
2023-04-05T12:59:24.940Z,2.06
2023-04-05T13:01:53.978Z,2.07
2023-04-05T13:04:23.469Z,2.08
2023-04-05T13:06:55.868Z,2.11
2023-04-05T13:09:24.359Z,2.14
2023-04-05T13:11:52.967Z,2.14
2023-04-05T13:14:22.631Z,2.15
2023-04-05T13:16:53.916Z,2.13
2023-04-05T13:19:23.787Z,2.10
2023-04-05T13:21:54.956Z,2.12
2023-04-05T13:24:23.761Z,2.13
2023-04-05T13:26:51.935Z,2.12
2023-04-05T13:29:21.094Z,2.10
2023-04-05T13:31:49.713Z,2.07
2023-04-05T13:34:21.383Z,2.04
2023-04-05T13:36:50.065Z,1.97
2023-04-05T13:39:18.593Z,1.93
2023-04-05T13:41:47.188Z,1.88
2023-04-05T13:44:15.973Z,1.86
2023-04-05T13:46:44.550Z,1.83
2023-04-05T13:49:13.147Z,1.84
2023-04-05T13:51:44.612Z,1.87
2023-04-05T14:00:50.913Z,1.91
2023-04-05T14:03:21.523Z,1.87
2023-04-05T14:05:55.271Z,1.86
2023-04-05T14:08:24.136Z,1.86
2023-04-05T14:10:59.058Z,1.86
2023-04-05T14:13:29.278Z,1.87
2023-04-05T14:15:57.620Z,1.84
2023-04-05T14:18:28.998Z,1.83
2023-04-05T14:21:16.321Z,1.81
2023-04-05T14:23:47.830Z,1.74
2023-04-05T14:26:17.308Z,1.68
2023-04-05T14:28:45.664Z,1.61
2023-04-05T14:31:19.622Z,1.58
2023-04-05T14:33:49.173Z,1.56
2023-04-05T14:36:17.724Z,1.53
2023-04-05T14:38:46.982Z,1.51
2023-04-05T14:41:15.632Z,1.49
2023-04-05T14:43:46.786Z,1.48
2023-04-05T14:46:15.814Z,1.49
2023-04-05T14:48:44.275Z,1.49
2023-04-05T14:51:13.368Z,1.52
2023-04-05T14:53:50.235Z,1.56
2023-04-05T14:56:20.474Z,1.56
2023-04-05T14:58:49.123Z,1.55
2023-04-05T15:01:17.356Z,1.53
2023-04-05T15:03:48.547Z,1.52
2023-04-05T15:06:17.028Z,1.54
2023-04-05T15:08:45.432Z,1.54
2023-04-05T15:11:13.792Z,1.51
2023-04-05T15:13:42.625Z,1.53
2023-04-05T15:16:11.773Z,1.56
2023-04-05T15:18:42.299Z,1.53
2023-04-05T15:21:11.248Z,1.51
2023-04-05T15:23:40.936Z,1.48
2023-04-05T15:26:09.386Z,1.44
2023-04-05T15:28:40.954Z,1.39
2023-04-05T15:31:10.489Z,1.37
2023-04-05T15:33:39.453Z,1.33
2023-04-05T15:36:14.570Z,1.28
2023-04-05T15:38:46.331Z,1.27
2023-04-05T15:41:14.826Z,1.28
2023-04-05T15:43:47.126Z,1.29
2023-04-05T15:46:15.871Z,1.30
2023-04-05T15:48:44.283Z,1.31
2023-04-05T15:51:15.924Z,1.35
2023-04-05T15:53:44.575Z,1.35
2023-04-05T15:56:13.788Z,1.31
2023-04-05T15:58:42.157Z,1.28
2023-04-05T16:01:10.407Z,1.23
2023-04-05T16:03:40.823Z,1.19
2023-04-05T16:06:09.574Z,1.16
2023-04-05T16:08:41.197Z,1.12
2023-04-05T16:11:12.988Z,1.11
2023-04-05T16:13:51.495Z,1.08
2023-04-05T16:16:32.011Z,1.07
2023-04-05T16:19:04.011Z,1.06
2023-04-05T16:21:36.272Z,1.05
2023-04-05T16:24:05.796Z,1.07
2023-04-05T16:26:34.758Z,1.08
2023-04-05T16:29:03.410Z,1.10
2023-04-05T16:31:32.667Z,1.08
2023-04-05T16:34:01.333Z,1.08
2023-04-05T16:36:32.887Z,1.09
2023-04-05T16:39:02.374Z,1.07
2023-04-05T16:41:32.418Z,1.08
2023-04-05T16:44:04.775Z,1.10
2023-04-05T16:46:33.801Z,1.12
2023-04-05T16:49:02.667Z,1.12
2023-04-05T16:51:32.981Z,1.13
2023-04-05T16:54:03.291Z,1.13
2023-04-05T16:56:31.748Z,1.14
2023-04-05T16:59:01.696Z,1.15
2023-04-05T17:01:34.601Z,1.12
2023-04-05T17:04:04.819Z,1.09
2023-04-05T17:06:34.309Z,1.09
2023-04-05T17:09:03.490Z,1.08
2023-04-05T17:11:32.630Z,1.09
2023-04-05T17:14:01.389Z,1.11
2023-04-05T17:16:29.843Z,1.14
2023-04-05T17:18:58.469Z,1.17
2023-04-05T17:21:29.612Z,1.18
2023-04-05T17:23:58.688Z,1.16
2023-04-05T17:26:27.411Z,1.16
2023-04-05T17:28:55.959Z,1.17
2023-04-05T17:31:24.798Z,1.18
2023-04-05T17:33:56.723Z,1.19
2023-04-05T17:36:28.461Z,1.21
2023-04-05T17:38:56.642Z,1.24
2023-04-05T17:41:25.129Z,1.26
2023-04-05T17:43:56.786Z,1.27
2023-04-05T17:46:39.616Z,1.26
2023-04-05T17:49:09.738Z,1.28
2023-04-05T17:51:42.128Z,1.32
2023-04-05T17:54:12.504Z,1.29
2023-04-05T17:56:41.185Z,1.29
2023-04-05T17:59:10.065Z,1.29
2023-04-05T18:01:39.596Z,1.30
2023-04-05T18:04:10.267Z,1.30
2023-04-05T18:06:40.862Z,1.29
2023-04-05T18:16:52.798Z,1.44
2023-04-05T18:19:21.795Z,1.47
2023-04-05T18:21:50.576Z,1.51
2023-04-05T18:24:18.800Z,1.49
2023-04-05T18:26:47.463Z,1.48
2023-04-05T18:29:15.928Z,1.47
2023-04-05T18:31:44.367Z,1.45
2023-04-05T18:34:13.074Z,1.45
2023-04-05T18:36:46.680Z,1.44
2023-04-05T18:39:16.929Z,1.45
2023-04-05T18:41:45.342Z,1.44
2023-04-05T18:44:13.883Z,1.42
2023-04-05T18:46:45.611Z,1.43
2023-04-05T18:49:16.158Z,1.42
2023-04-05T18:51:45.663Z,1.46
2023-04-05T18:54:18.746Z,1.47
2023-04-05T18:56:47.624Z,1.45
2023-04-05T18:59:17.465Z,1.43
2023-04-05T19:01:46.135Z,1.41
2023-04-05T19:04:16.454Z,1.43
2023-04-05T19:06:44.822Z,1.46
2023-04-05T19:09:13.319Z,1.48
2023-04-05T19:11:44.508Z,1.51
2023-04-05T19:14:14.169Z,1.49
2023-04-05T19:16:42.690Z,1.49
2023-04-05T19:19:11.323Z,1.48
2023-04-05T19:21:45.414Z,1.50
2023-04-05T19:24:15.065Z,1.52
2023-04-05T19:26:43.514Z,1.54
2023-04-05T19:29:12.503Z,1.56
2023-04-05T19:31:41.703Z,1.57
2023-04-05T19:34:10.526Z,1.61
2023-04-05T19:36:40.042Z,1.62
2023-04-05T19:39:12.024Z,1.65
2023-04-05T19:41:40.456Z,1.69
2023-04-05T19:44:13.167Z,1.73
2023-04-05T19:46:41.548Z,1.71
2023-04-05T19:49:11.133Z,1.69
2023-04-05T19:51:39.378Z,1.68
2023-04-05T19:54:09.528Z,1.69
2023-04-05T19:56:39.080Z,1.66
2023-04-05T19:59:10.364Z,1.65
2023-04-05T21:05:09.150Z,1.71
2023-04-05T21:21:24.782Z,1.65
2023-04-05T23:39:48.010Z,2.05
